sensor_id;sensor_type;location;lat;lon;timestamp;pressure;altitude;pressure_sealevel;temperature;humidity
5296;BME280;2670;42.720;23.336;2023-03-01T00:00:08;-22625.91;;;6.32;100.00
5296;BME280;2670;42.720;23.336;2023-03-01T00:02:35;-22625.16;;;6.30;100.00
5296;BME280;2670;42.720;23.336;2023-03-01T00:05:03;-22624.72;;;6.28;100.00
5296;BME280;2670;42.720;23.336;2023-03-01T00:07:30;-22625.31;;;6.30;100.00
5296;BME280;2670;42.720;23.336;2023-03-01T00:09:58;-22625.16;;;6.30;100.00
5296;BME280;2670;42.720;23.336;2023-03-01T00:12:25;-22624.25;;;6.27;100.00
5296;BME280;2670;42.720;23.336;2023-03-01T00:14:53;-22623.38;;;6.23;100.00
5296;BME280;2670;42.720;23.336;2023-03-01T00:17:19;-22623.06;;;6.22;100.00
5296;BME280;2670;42.720;23.336;2023-03-01T00:19:46;-22623.22;;;6.23;100.00
5296;BME280;2670;42.720;23.336;2023-03-01T00:22:13;-22620.84;;;6.15;100.00
5296;BME280;2670;42.720;23.336;2023-03-01T00:24:40;-22622.19;;;6.19;100.00
5296;BME280;2670;42.720;23.336;2023-03-01T00:27:08;-22620.84;;;6.15;100.00
5296;BME280;2670;42.720;23.336;2023-03-01T00:29:35;-22620.09;;;6.12;100.00
5296;BME280;2670;42.720;23.336;2023-03-01T00:32:02;-22619.06;;;6.09;100.00
5296;BME280;2670;42.720;23.336;2023-03-01T00:34:29;-22621.13;;;6.16;100.00
5296;BME280;2670;42.720;23.336;2023-03-01T00:36:55;-22618.00;;;6.05;100.00
5296;BME280;2670;42.720;23.336;2023-03-01T00:39:31;-22617.72;;;6.04;100.00
5296;BME280;2670;42.720;23.336;2023-03-01T00:41:59;-22615.78;;;5.97;100.00
5296;BME280;2670;42.720;23.336;2023-03-01T00:44:27;-22614.28;;;5.92;100.00
5296;BME280;2670;42.720;23.336;2023-03-01T00:46:54;-22613.53;;;5.90;100.00
5296;BME280;2670;42.720;23.336;2023-03-01T00:49:21;-22613.25;;;5.89;100.00
5296;BME280;2670;42.720;23.336;2023-03-01T00:51:49;-22615.19;;;5.95;100.00
5296;BME280;2670;42.720;23.336;2023-03-01T00:54:16;-22616.06;;;5.98;100.00
5296;BME280;2670;42.720;23.336;2023-03-01T00:56:43;-22617.13;;;6.02;100.00
5296;BME280;2670;42.720;23.336;2023-03-01T00:59:10;-22617.13;;;6.02;100.00
5296;BME280;2670;42.720;23.336;2023-03-01T01:01:38;-22615.94;;;5.98;100.00
5296;BME280;2670;42.720;23.336;2023-03-01T01:04:08;-22612.50;;;5.86;100.00
5296;BME280;2670;42.720;23.336;2023-03-01T01:06:36;-22613.25;;;5.89;100.00
5296;BME280;2670;42.720;23.336;2023-03-01T01:09:05;-22612.66;;;5.87;100.00
5296;BME280;2670;42.720;23.336;2023-03-01T01:11:33;-22613.69;;;5.90;100.00
5296;BME280;2670;42.720;23.336;2023-03-01T01:14:01;-22614.28;;;5.92;100.00
5296;BME280;2670;42.720;23.336;2023-03-01T01:16:28;-22612.66;;;5.87;100.00
5296;BME280;2670;42.720;23.336;2023-03-01T01:18:57;-22615.19;;;5.95;100.00
5296;BME280;2670;42.720;23.336;2023-03-01T01:21:25;-22612.78;;;5.87;100.00
5296;BME280;2670;42.720;23.336;2023-03-01T01:23:52;-22612.78;;;5.87;100.00
5296;BME280;2670;42.720;23.336;2023-03-01T01:26:21;-22610.13;;;5.78;100.00
5296;BME280;2670;42.720;23.336;2023-03-01T01:28:49;-22612.78;;;5.87;100.00
5296;BME280;2670;42.720;23.336;2023-03-01T01:31:16;-22610.84;;;5.81;100.00
5296;BME280;2670;42.720;23.336;2023-03-01T01:33:43;-22612.94;;;5.88;100.00
5296;BME280;2670;42.720;23.336;2023-03-01T01:36:12;-22614.72;;;5.94;100.00
5296;BME280;2670;42.720;23.336;2023-03-01T01:38:39;-22613.38;;;5.89;100.00
5296;BME280;2670;42.720;23.336;2023-03-01T01:41:07;-22613.38;;;5.89;100.00
5296;BME280;2670;42.720;23.336;2023-03-01T01:43:38;-22613.69;;;5.90;100.00
5296;BME280;2670;42.720;23.336;2023-03-01T01:46:15;-22612.34;;;5.86;100.00
5296;BME280;2670;42.720;23.336;2023-03-01T01:48:48;-22611.16;;;5.82;100.00
5296;BME280;2670;42.720;23.336;2023-03-01T01:51:21;-22613.97;;;5.91;100.00
5296;BME280;2670;42.720;23.336;2023-03-01T01:53:52;-22614.59;;;5.93;100.00
5296;BME280;2670;42.720;23.336;2023-03-01T01:56:22;-22613.84;;;5.91;100.00
5296;BME280;2670;42.720;23.336;2023-03-01T01:58:51;-22613.25;;;5.89;100.00
5296;BME280;2670;42.720;23.336;2023-03-01T02:04:40;-22612.50;;;5.86;100.00
5296;BME280;2670;42.720;23.336;2023-03-01T02:24:16;-22609.81;;;5.77;100.00
5296;BME280;2670;42.720;23.336;2023-03-01T02:26:51;-22611.44;;;5.83;100.00
5296;BME280;2670;42.720;23.336;2023-03-01T02:29:22;-22609.81;;;5.77;100.00
5296;BME280;2670;42.720;23.336;2023-03-01T02:31:51;-22608.63;;;5.73;100.00
5296;BME280;2670;42.720;23.336;2023-03-01T02:34:20;-22610.56;;;5.80;100.00
5296;BME280;2670;42.720;23.336;2023-03-01T02:36:53;-22609.97;;;5.78;100.00
5296;BME280;2670;42.720;23.336;2023-03-01T02:39:24;-22611.16;;;5.82;100.00
5296;BME280;2670;42.720;23.336;2023-03-01T02:41:54;-22611.44;;;5.83;100.00
5296;BME280;2670;42.720;23.336;2023-03-01T02:44:24;-22612.78;;;5.87;100.00
5296;BME280;2670;42.720;23.336;2023-03-01T02:46:52;-22611.31;;;5.82;100.00
5296;BME280;2670;42.720;23.336;2023-03-01T02:49:23;-22611.91;;;5.84;100.00
5296;BME280;2670;42.720;23.336;2023-03-01T02:52:07;-22612.78;;;5.87;100.00
5296;BME280;2670;42.720;23.336;2023-03-01T02:54:40;-22610.72;;;5.80;100.00
5296;BME280;2670;42.720;23.336;2023-03-01T02:57:09;-22610.56;;;5.80;100.00
5296;BME280;2670;42.720;23.336;2023-03-01T02:59:38;-22611.16;;;5.82;100.00
5296;BME280;2670;42.720;23.336;2023-03-01T03:02:06;-22610.56;;;5.80;100.00
5296;BME280;2670;42.720;23.336;2023-03-01T03:04:34;-22609.22;;;5.75;100.00
5296;BME280;2670;42.720;23.336;2023-03-01T03:07:00;-22608.19;;;5.71;100.00
5296;BME280;2670;42.720;23.336;2023-03-01T03:09:27;-22608.31;;;5.72;100.00
5296;BME280;2670;42.720;23.336;2023-03-01T03:11:54;-22605.78;;;5.63;100.00
5296;BME280;2670;42.720;23.336;2023-03-01T03:14:21;-22605.78;;;5.63;100.00
5296;BME280;2670;42.720;23.336;2023-03-01T03:16:50;-22606.25;;;5.65;100.00
5296;BME280;2670;42.720;23.336;2023-03-01T03:19:17;-22605.06;;;5.61;100.00
5296;BME280;2670;42.720;23.336;2023-03-01T03:21:50;-22605.78;;;5.63;100.00
5296;BME280;2670;42.720;23.336;2023-03-01T03:24:17;-22606.09;;;5.64;100.00
5296;BME280;2670;42.720;23.336;2023-03-01T03:26:44;-22607.13;;;5.68;100.00
5296;BME280;2670;42.720;23.336;2023-03-01T03:29:11;-22607.28;;;5.68;100.00
5296;BME280;2670;42.720;23.336;2023-03-01T03:31:38;-22608.31;;;5.72;100.00
5296;BME280;2670;42.720;23.336;2023-03-01T03:34:06;-22607.13;;;5.68;100.00
5296;BME280;2670;42.720;23.336;2023-03-01T03:36:33;-22608.78;;;5.73;100.00
5296;BME280;2670;42.720;23.336;2023-03-01T03:39:00;-22608.03;;;5.71;100.00
5296;BME280;2670;42.720;23.336;2023-03-01T03:41:26;-22608.03;;;5.71;100.00
5296;BME280;2670;42.720;23.336;2023-03-01T03:43:53;-22609.22;;;5.75;100.00
5296;BME280;2670;42.720;23.336;2023-03-01T03:46:20;-22607.28;;;5.68;100.00
5296;BME280;2670;42.720;23.336;2023-03-01T03:49:06;-22603.84;;;5.57;100.00
5296;BME280;2670;42.720;23.336;2023-03-01T03:51:32;-22604.59;;;5.59;100.00
5296;BME280;2670;42.720;23.336;2023-03-01T03:53:59;-22604.31;;;5.58;100.00
5296;BME280;2670;42.720;23.336;2023-03-01T03:56:26;-22605.78;;;5.63;100.00
5296;BME280;2670;42.720;23.336;2023-03-01T03:58:53;-22605.06;;;5.61;100.00
5296;BME280;2670;42.720;23.336;2023-03-01T04:01:20;-22606.38;;;5.65;100.00
5296;BME280;2670;42.720;23.336;2023-03-01T04:03:47;-22608.19;;;5.71;100.00
5296;BME280;2670;42.720;23.336;2023-03-01T04:06:15;-22606.09;;;5.64;100.00
5296;BME280;2670;42.720;23.336;2023-03-01T04:08:42;-22605.34;;;5.62;100.00
5296;BME280;2670;42.720;23.336;2023-03-01T04:11:09;-22603.84;;;5.57;100.00
5296;BME280;2670;42.720;23.336;2023-03-01T04:14:01;-22604.59;;;5.59;100.00
5296;BME280;2670;42.720;23.336;2023-03-01T04:16:29;-22605.06;;;5.61;100.00
5296;BME280;2670;42.720;23.336;2023-03-01T04:18:56;-22605.50;;;5.62;100.00
5296;BME280;2670;42.720;23.336;2023-03-01T04:21:26;-22606.25;;;5.65;100.00
5296;BME280;2670;42.720;23.336;2023-03-01T04:23:53;-22604.59;;;5.59;100.00
5296;BME280;2670;42.720;23.336;2023-03-01T04:26:20;-22604.31;;;5.58;100.00
5296;BME280;2670;42.720;23.336;2023-03-01T04:28:47;-22605.50;;;5.62;100.00
5296;BME280;2670;42.720;23.336;2023-03-01T04:31:18;-22603.13;;;5.54;100.00
5296;BME280;2670;42.720;23.336;2023-03-01T04:33:47;-22602.66;;;5.53;100.00
5296;BME280;2670;42.720;23.336;2023-03-01T04:36:17;-22603.13;;;5.54;100.00
5296;BME280;2670;42.720;23.336;2023-03-01T04:38:46;-22604.44;;;5.59;100.00
5296;BME280;2670;42.720;23.336;2023-03-01T04:41:15;-22603.84;;;5.57;100.00
5296;BME280;2670;42.720;23.336;2023-03-01T04:43:42;-22602.22;;;5.51;100.00
5296;BME280;2670;42.720;23.336;2023-03-01T04:46:12;-22602.66;;;5.53;100.00
5296;BME280;2670;42.720;23.336;2023-03-01T04:48:40;-22603.25;;;5.55;100.00
5296;BME280;2670;42.720;23.336;2023-03-01T04:51:08;-22601.03;;;5.47;100.00
5296;BME280;2670;42.720;23.336;2023-03-01T04:53:35;-22598.78;;;5.39;100.00
5296;BME280;2670;42.720;23.336;2023-03-01T04:56:04;-22599.09;;;5.40;100.00
5296;BME280;2670;42.720;23.336;2023-03-01T04:58:31;-22598.94;;;5.40;100.00
5296;BME280;2670;42.720;23.336;2023-03-01T05:00:58;-22602.06;;;5.50;100.00
5296;BME280;2670;42.720;23.336;2023-03-01T05:03:25;-22599.84;;;5.43;100.00
5296;BME280;2670;42.720;23.336;2023-03-01T05:05:52;-22595.97;;;5.30;100.00
5296;BME280;2670;42.720;23.336;2023-03-01T05:08:19;-22592.97;;;5.19;100.00
5296;BME280;2670;42.720;23.336;2023-03-01T05:10:48;-22590.16;;;5.10;100.00
5296;BME280;2670;42.720;23.336;2023-03-01T05:13:17;-22592.69;;;5.18;100.00
5296;BME280;2670;42.720;23.336;2023-03-01T05:15:47;-22589.41;;;5.07;100.00
5296;BME280;2670;42.720;23.336;2023-03-01T05:18:15;-22586.56;;;4.97;100.00
5296;BME280;2670;42.720;23.336;2023-03-01T05:20:41;-22587.75;;;5.02;100.00
5296;BME280;2670;42.720;23.336;2023-03-01T05:23:10;-22589.25;;;5.07;100.00
5296;BME280;2670;42.720;23.336;2023-03-01T05:25:37;-22589.25;;;5.07;100.00
5296;BME280;2670;42.720;23.336;2023-03-01T05:28:06;-22591.19;;;5.13;100.00
5296;BME280;2670;42.720;23.336;2023-03-01T05:30:34;-22590.91;;;5.12;100.00
5296;BME280;2670;42.720;23.336;2023-03-01T05:33:01;-22590.59;;;5.11;100.00
5296;BME280;2670;42.720;23.336;2023-03-01T05:35:27;-22593.13;;;5.20;100.00
5296;BME280;2670;42.720;23.336;2023-03-01T05:37:57;-22593.13;;;5.20;100.00
5296;BME280;2670;42.720;23.336;2023-03-01T05:40:24;-22593.44;;;5.21;100.00
5296;BME280;2670;42.720;23.336;2023-03-01T05:42:53;-22592.97;;;5.19;100.00
5296;BME280;2670;42.720;23.336;2023-03-01T05:45:22;-22595.50;;;5.28;100.00
5296;BME280;2670;42.720;23.336;2023-03-01T05:47:50;-22596.84;;;5.33;100.00
5296;BME280;2670;42.720;23.336;2023-03-01T05:50:19;-22598.03;;;5.37;100.00
5296;BME280;2670;42.720;23.336;2023-03-01T05:52:47;-22595.81;;;5.29;100.00
5296;BME280;2670;42.720;23.336;2023-03-01T05:55:15;-22595.38;;;5.28;100.00
5296;BME280;2670;42.720;23.336;2023-03-01T05:57:42;-22596.25;;;5.31;100.00
5296;BME280;2670;42.720;23.336;2023-03-01T06:00:10;-22595.22;;;5.27;100.00
5296;BME280;2670;42.720;23.336;2023-03-01T06:02:37;-22597.00;;;5.33;100.00
5296;BME280;2670;42.720;23.336;2023-03-01T06:05:08;-22599.09;;;5.40;100.00
5296;BME280;2670;42.720;23.336;2023-03-01T06:07:35;-22598.50;;;5.38;100.00
5296;BME280;2670;42.720;23.336;2023-03-01T06:10:03;-22597.31;;;5.34;100.00
5296;BME280;2670;42.720;23.336;2023-03-01T06:12:31;-22597.00;;;5.33;100.00
5296;BME280;2670;42.720;23.336;2023-03-01T06:14:58;-22597.31;;;5.34;100.00
5296;BME280;2670;42.720;23.336;2023-03-01T06:17:25;-22594.47;;;5.24;100.00
5296;BME280;2670;42.720;23.336;2023-03-01T06:19:51;-22596.56;;;5.32;100.00
5296;BME280;2670;42.720;23.336;2023-03-01T06:22:20;-22596.84;;;5.33;100.00
5296;BME280;2670;42.720;23.336;2023-03-01T06:24:46;-22597.00;;;5.33;100.00
5296;BME280;2670;42.720;23.336;2023-03-01T06:27:13;-22597.16;;;5.34;100.00
5296;BME280;2670;42.720;23.336;2023-03-01T06:29:42;-22598.03;;;5.37;100.00
5296;BME280;2670;42.720;23.336;2023-03-01T06:32:08;-22599.25;;;5.41;100.00
5296;BME280;2670;42.720;23.336;2023-03-01T06:34:35;-22599.25;;;5.41;100.00
5296;BME280;2670;42.720;23.336;2023-03-01T06:37:02;-22597.91;;;5.36;100.00
5296;BME280;2670;42.720;23.336;2023-03-01T06:39:32;-22599.53;;;5.42;100.00
5296;BME280;2670;42.720;23.336;2023-03-01T06:41:59;-22601.16;;;5.47;100.00
5296;BME280;2670;42.720;23.336;2023-03-01T06:44:26;-22600.44;;;5.45;100.00
5296;BME280;2670;42.720;23.336;2023-03-01T06:46:53;-22601.63;;;5.49;100.00
5296;BME280;2670;42.720;23.336;2023-03-01T06:49:20;-22602.38;;;5.52;100.00
5296;BME280;2670;42.720;23.336;2023-03-01T06:51:47;-22603.56;;;5.56;100.00
5296;BME280;2670;42.720;23.336;2023-03-01T06:54:13;-22603.41;;;5.55;100.00
5296;BME280;2670;42.720;23.336;2023-03-01T06:56:42;-22604.75;;;5.60;100.00
5296;BME280;2670;42.720;23.336;2023-03-01T06:59:08;-22602.81;;;5.53;100.00
5296;BME280;2670;42.720;23.336;2023-03-01T07:01:35;-22602.97;;;5.54;100.00
5296;BME280;2670;42.720;23.336;2023-03-01T07:04:02;-22604.31;;;5.58;100.00
5296;BME280;2670;42.720;23.336;2023-03-01T07:06:29;-22603.13;;;5.54;100.00
5296;BME280;2670;42.720;23.336;2023-03-01T07:08:56;-22605.66;;;5.63;100.00
5296;BME280;2670;42.720;23.336;2023-03-01T07:11:22;-22606.09;;;5.64;100.00
5296;BME280;2670;42.720;23.336;2023-03-01T07:13:50;-22604.44;;;5.59;100.00
5296;BME280;2670;42.720;23.336;2023-03-01T07:16:17;-22606.09;;;5.64;100.00
5296;BME280;2670;42.720;23.336;2023-03-01T07:18:46;-22605.78;;;5.63;100.00
5296;BME280;2670;42.720;23.336;2023-03-01T07:21:14;-22608.47;;;5.72;100.00
5296;BME280;2670;42.720;23.336;2023-03-01T07:23:41;-22607.28;;;5.68;100.00
5296;BME280;2670;42.720;23.336;2023-03-01T07:26:08;-22607.44;;;5.69;100.00
5296;BME280;2670;42.720;23.336;2023-03-01T07:28:35;-22610.13;;;5.78;100.00
5296;BME280;2670;42.720;23.336;2023-03-01T07:31:06;-22607.88;;;5.70;100.00
5296;BME280;2670;42.720;23.336;2023-03-01T07:54:54;-22623.97;;;6.26;100.00
5296;BME280;2670;42.720;23.336;2023-03-01T07:57:20;-22627.84;;;6.39;100.00
5296;BME280;2670;42.720;23.336;2023-03-01T07:59:47;-22626.19;;;6.33;100.00
5296;BME280;2670;42.720;23.336;2023-03-01T08:02:14;-22631.09;;;6.50;100.00
5296;BME280;2670;42.720;23.336;2023-03-01T08:04:41;-22628.44;;;6.41;100.00
5296;BME280;2670;42.720;23.336;2023-03-01T08:07:08;-22627.25;;;6.37;100.00
5296;BME280;2670;42.720;23.336;2023-03-01T08:09:35;-22629.47;;;6.44;100.00
5296;BME280;2670;42.720;23.336;2023-03-01T08:12:04;-22632.59;;;6.55;100.00
5296;BME280;2670;42.720;23.336;2023-03-01T08:14:32;-22630.66;;;6.48;100.00
5296;BME280;2670;42.720;23.336;2023-03-01T08:17:08;-22633.03;;;6.57;100.00
5296;BME280;2670;42.720;23.336;2023-03-01T08:19:35;-22634.22;;;6.61;100.00
5296;BME280;2670;42.720;23.336;2023-03-01T08:22:02;-22634.81;;;6.63;100.00
5296;BME280;2670;42.720;23.336;2023-03-01T08:24:29;-22630.66;;;6.48;100.00
5296;BME280;2670;42.720;23.336;2023-03-01T08:26:56;-22635.28;;;6.64;100.00
5296;BME280;2670;42.720;23.336;2023-03-01T08:29:24;-22638.41;;;6.75;100.00
5296;BME280;2670;42.720;23.336;2023-03-01T08:31:51;-22636.75;;;6.69;100.00
5296;BME280;2670;42.720;23.336;2023-03-01T08:34:18;-22639.00;;;6.77;100.00
5296;BME280;2670;42.720;23.336;2023-03-01T08:36:46;-22639.44;;;6.79;100.00
5296;BME280;2670;42.720;23.336;2023-03-01T08:39:15;-22640.03;;;6.81;100.00
5296;BME280;2670;42.720;23.336;2023-03-01T08:41:42;-22640.63;;;6.83;100.00
5296;BME280;2670;42.720;23.336;2023-03-01T08:44:10;-22640.19;;;6.81;100.00
5296;BME280;2670;42.720;23.336;2023-03-01T08:46:41;-22644.94;;;6.97;100.00
5296;BME280;2670;42.720;23.336;2023-03-01T08:49:09;-22647.03;;;7.05;100.00
5296;BME280;2670;42.720;23.336;2023-03-01T08:51:35;-22646.88;;;7.04;100.00
5296;BME280;2670;42.720;23.336;2023-03-01T08:54:03;-22648.66;;;7.10;100.00
5296;BME280;2670;42.720;23.336;2023-03-01T09:26:36;-22666.50;;;7.71;100.00
5296;BME280;2670;42.720;23.336;2023-03-01T09:29:03;-22670.06;;;7.84;100.00
5296;BME280;2670;42.720;23.336;2023-03-01T09:31:30;-22671.41;;;7.88;100.00
5296;BME280;2670;42.720;23.336;2023-03-01T09:33:56;-22671.41;;;7.88;100.00
5296;BME280;2670;42.720;23.336;2023-03-01T09:36:24;-22673.19;;;7.94;100.00
5296;BME280;2670;42.720;23.336;2023-03-01T09:38:51;-22671.84;;;7.90;100.00
5296;BME280;2670;42.720;23.336;2023-03-01T09:41:38;-22672.88;;;7.93;100.00
5296;BME280;2670;42.720;23.336;2023-03-01T09:44:16;-22667.25;;;7.74;100.00
5296;BME280;2670;42.720;23.336;2023-03-01T09:46:45;-22673.03;;;7.94;100.00
5296;BME280;2670;42.720;23.336;2023-03-01T09:52:38;-22669.75;;;7.83;100.00
5296;BME280;2670;42.720;23.336;2023-03-01T09:55:10;-22668.88;;;7.80;100.00
5296;BME280;2670;42.720;23.336;2023-03-01T09:57:45;-22671.09;;;7.87;100.00
5296;BME280;2670;42.720;23.336;2023-03-01T10:00:22;-22669.31;;;7.81;100.00
5296;BME280;2670;42.720;23.336;2023-03-01T10:02:57;-22669.91;;;7.83;100.00
5296;BME280;2670;42.720;23.336;2023-03-01T10:05:35;-22673.03;;;7.94;100.00
5296;BME280;2670;42.720;23.336;2023-03-01T10:08:29;-22675.25;;;8.02;100.00
5296;BME280;2670;42.720;23.336;2023-03-01T10:10:59;-22675.72;;;8.03;100.00
5296;BME280;2670;42.720;23.336;2023-03-01T10:13:33;-22672.16;;;7.91;100.00
5296;BME280;2670;42.720;23.336;2023-03-01T10:16:05;-22673.91;;;7.97;100.00
5296;BME280;2670;42.720;23.336;2023-03-01T10:18:37;-22677.34;;;8.09;100.00
5296;BME280;2670;42.720;23.336;2023-03-01T10:21:13;-22681.66;;;8.23;100.00
5296;BME280;2670;42.720;23.336;2023-03-01T10:23:40;-22679.56;;;8.16;100.00
5296;BME280;2670;42.720;23.336;2023-03-01T10:26:18;-22677.19;;;8.08;100.00
5296;BME280;2670;42.720;23.336;2023-03-01T10:29:00;-22678.97;;;8.14;100.00
5296;BME280;2670;42.720;23.336;2023-03-01T10:31:38;-22678.38;;;8.12;100.00
5296;BME280;2670;42.720;23.336;2023-03-01T10:34:12;-22680.00;;;8.18;100.00
5296;BME280;2670;42.720;23.336;2023-03-01T10:36:39;-22679.56;;;8.16;100.00
5296;BME280;2670;42.720;23.336;2023-03-01T10:39:13;-22682.38;;;8.26;100.00
5296;BME280;2670;42.720;23.336;2023-03-01T10:41:58;-22686.84;;;8.41;100.00
5296;BME280;2670;42.720;23.336;2023-03-01T10:44:39;-22686.84;;;8.41;100.00
5296;BME280;2670;42.720;23.336;2023-03-01T10:47:14;-22688.78;;;8.48;100.00
5296;BME280;2670;42.720;23.336;2023-03-01T10:49:53;-22690.56;;;8.54;100.00
5296;BME280;2670;42.720;23.336;2023-03-01T10:52:22;-22693.09;;;8.63;100.00
5296;BME280;2670;42.720;23.336;2023-03-01T10:54:54;-22692.78;;;8.62;100.00
5296;BME280;2670;42.720;23.336;2023-03-01T10:57:33;-22690.13;;;8.53;100.00
5296;BME280;2670;42.720;23.336;2023-03-01T11:00:19;-22690.84;;;8.55;100.00
5296;BME280;2670;42.720;23.336;2023-03-01T11:02:51;-22689.09;;;8.49;100.00
5296;BME280;2670;42.720;23.336;2023-03-01T11:05:28;-22688.78;;;8.48;100.00
5296;BME280;2670;42.720;23.336;2023-03-01T11:07:57;-22689.81;;;8.52;100.00
5296;BME280;2670;42.720;23.336;2023-03-01T11:10:25;-22689.53;;;8.51;100.00
5296;BME280;2670;42.720;23.336;2023-03-01T11:19:37;-22695.47;;;8.71;100.00
5296;BME280;2670;42.720;23.336;2023-03-01T11:22:07;-22695.31;;;8.70;100.00
5296;BME280;2670;42.720;23.336;2023-03-01T11:24:40;-22694.28;;;8.67;100.00
5296;BME280;2670;42.720;23.336;2023-03-01T11:27:16;-22691.31;;;8.57;100.00
5296;BME280;2670;42.720;23.336;2023-03-01T11:43:41;-22692.78;;;8.62;100.00
5296;BME280;2670;42.720;23.336;2023-03-01T11:46:40;-22696.34;;;8.74;100.00
5296;BME280;2670;42.720;23.336;2023-03-01T11:49:37;-22699.47;;;8.85;100.00
5296;BME280;2670;42.720;23.336;2023-03-01T11:52:13;-22699.75;;;8.86;100.00
5296;BME280;2670;42.720;23.336;2023-03-01T11:54:55;-22702.00;;;8.93;100.00
5296;BME280;2670;42.720;23.336;2023-03-01T11:57:37;-22703.19;;;8.97;100.00
5296;BME280;2670;42.720;23.336;2023-03-01T12:00:42;-22704.06;;;9.01;100.00
5296;BME280;2670;42.720;23.336;2023-03-01T12:03:25;-22700.81;;;8.89;100.00
5296;BME280;2670;42.720;23.336;2023-03-01T12:06:17;-22698.44;;;8.81;100.00
5296;BME280;2670;42.720;23.336;2023-03-01T12:08:56;-22697.09;;;8.77;100.00
5296;BME280;2670;42.720;23.336;2023-03-01T12:11:43;-22702.59;;;8.95;100.00
5296;BME280;2670;42.720;23.336;2023-03-01T12:14:28;-22701.84;;;8.93;100.00
5296;BME280;2670;42.720;23.336;2023-03-01T12:37:01;-22711.63;;;9.27;100.00
5296;BME280;2670;42.720;23.336;2023-03-01T12:39:40;-22710.31;;;9.22;100.00
5296;BME280;2670;42.720;23.336;2023-03-01T12:42:19;-22709.72;;;9.20;100.00
5296;BME280;2670;42.720;23.336;2023-03-01T12:44:59;-22705.69;;;9.06;100.00
5296;BME280;2670;42.720;23.336;2023-03-01T12:47:42;-22706.44;;;9.09;100.00
5296;BME280;2670;42.720;23.336;2023-03-01T12:50:19;-22705.56;;;9.06;100.00
5296;BME280;2670;42.720;23.336;2023-03-01T12:52:51;-22707.94;;;9.14;100.00
5296;BME280;2670;42.720;23.336;2023-03-01T12:55:29;-22712.22;;;9.29;100.00
5296;BME280;2670;42.720;23.336;2023-03-01T12:58:05;-22712.97;;;9.31;100.00
5296;BME280;2670;42.720;23.336;2023-03-01T13:00:39;-22713.72;;;9.34;100.00
5296;BME280;2670;42.720;23.336;2023-03-01T13:03:19;-22713.13;;;9.32;100.00
5296;BME280;2670;42.720;23.336;2023-03-01T13:06:00;-22714.91;;;9.38;100.00
5296;BME280;2670;42.720;23.336;2023-03-01T13:08:33;-22720.25;;;9.56;100.00
5296;BME280;2670;42.720;23.336;2023-03-01T13:11:04;-22721.13;;;9.59;100.00
5296;BME280;2670;42.720;23.336;2023-03-01T13:13:32;-22722.59;;;9.64;100.00
5296;BME280;2670;42.720;23.336;2023-03-01T13:16:21;-22721.72;;;9.61;100.00
5296;BME280;2670;42.720;23.336;2023-03-01T13:18:49;-22724.69;;;9.71;100.00
5296;BME280;2670;42.720;23.336;2023-03-01T13:21:30;-22720.09;;;9.56;100.00
5296;BME280;2670;42.720;23.336;2023-03-01T13:23:58;-22716.09;;;9.42;100.00
5296;BME280;2670;42.720;23.336;2023-03-01T13:36:47;-22724.09;;;9.69;100.00
5296;BME280;2670;42.720;23.336;2023-03-01T13:39:30;-22716.53;;;9.43;100.00
5296;BME280;2670;42.720;23.336;2023-03-01T13:41:59;-22713.41;;;9.33;100.00
5296;BME280;2670;42.720;23.336;2023-03-01T13:44:30;-22713.84;;;9.34;100.00
5296;BME280;2670;42.720;23.336;2023-03-01T13:47:03;-22712.97;;;9.31;100.00
5296;BME280;2670;42.720;23.336;2023-03-01T13:49:42;-22714.31;;;9.36;100.00
5296;BME280;2670;42.720;23.336;2023-03-01T13:52:37;-22718.00;;;9.48;100.00
5296;BME280;2670;42.720;23.336;2023-03-01T13:55:18;-22718.91;;;9.52;100.00
5296;BME280;2670;42.720;23.336;2023-03-01T13:57:48;-22719.19;;;9.53;100.00
5296;BME280;2670;42.720;23.336;2023-03-01T14:00:31;-22716.81;;;9.44;100.00
5296;BME280;2670;42.720;23.336;2023-03-01T14:03:09;-22715.63;;;9.40;100.00
5296;BME280;2670;42.720;23.336;2023-03-01T14:05:37;-22711.78;;;9.27;100.00
5296;BME280;2670;42.720;23.336;2023-03-01T14:08:05;-22713.13;;;9.32;100.00
5296;BME280;2670;42.720;23.336;2023-03-01T14:27:36;-22701.09;;;8.90;100.00
5296;BME280;2670;42.720;23.336;2023-03-01T14:30:26;-22701.53;;;8.92;100.00
5296;BME280;2670;42.720;23.336;2023-03-01T14:36:25;-22693.97;;;8.66;100.00
5296;BME280;2670;42.720;23.336;2023-03-01T14:42:12;-22690.84;;;8.55;100.00
5296;BME280;2670;42.720;23.336;2023-03-01T14:48:04;-22688.94;;;8.48;100.00
5296;BME280;2670;42.720;23.336;2023-03-01T14:50:34;-22687.75;;;8.44;100.00
5296;BME280;2670;42.720;23.336;2023-03-01T14:53:05;-22684.31;;;8.33;100.00
5296;BME280;2670;42.720;23.336;2023-03-01T14:55:35;-22686.41;;;8.40;100.00
5296;BME280;2670;42.720;23.336;2023-03-01T14:58:04;-22685.81;;;8.38;100.00
5296;BME280;2670;42.720;23.336;2023-03-01T15:00:33;-22684.47;;;8.33;100.00
5296;BME280;2670;42.720;23.336;2023-03-01T15:03:07;-22684.63;;;8.34;100.00
5296;BME280;2670;42.720;23.336;2023-03-01T15:05:40;-22683.88;;;8.31;100.00
5296;BME280;2670;42.720;23.336;2023-03-01T15:08:16;-22684.19;;;8.32;100.00
5296;BME280;2670;42.720;23.336;2023-03-01T15:21:26;-22678.38;;;8.12;100.00
5296;BME280;2670;42.720;23.336;2023-03-01T15:23:55;-22672.72;;;7.93;100.00
5296;BME280;2670;42.720;23.336;2023-03-01T15:33:37;-22669.31;;;7.81;100.00
5296;BME280;2670;42.720;23.336;2023-03-01T15:36:36;-22669.31;;;7.81;100.00
5296;BME280;2670;42.720;23.336;2023-03-01T15:39:04;-22667.53;;;7.75;100.00
5296;BME280;2670;42.720;23.336;2023-03-01T15:41:37;-22663.38;;;7.61;100.00
5296;BME280;2670;42.720;23.336;2023-03-01T15:44:15;-22663.22;;;7.60;100.00
5296;BME280;2670;42.720;23.336;2023-03-01T15:46:46;-22660.41;;;7.51;100.00
5296;BME280;2670;42.720;23.336;2023-03-01T15:49:25;-22663.22;;;7.60;100.00
5296;BME280;2670;42.720;23.336;2023-03-01T15:51:55;-22662.94;;;7.59;100.00
5296;BME280;2670;42.720;23.336;2023-03-01T15:54:24;-22660.84;;;7.52;100.00
5296;BME280;2670;42.720;23.336;2023-03-01T15:56:52;-22660.09;;;7.49;100.00
5296;BME280;2670;42.720;23.336;2023-03-01T15:59:19;-22657.56;;;7.41;100.00
5296;BME280;2670;42.720;23.336;2023-03-01T16:01:47;-22653.72;;;7.28;100.00
5296;BME280;2670;42.720;23.336;2023-03-01T16:04:16;-22655.19;;;7.33;100.00
5296;BME280;2670;42.720;23.336;2023-03-01T16:06:48;-22655.34;;;7.33;100.00
5296;BME280;2670;42.720;23.336;2023-03-01T16:09:21;-22656.38;;;7.37;100.00